CA-0247 weather

CLOSED Mount Flett Airport
Northwest Territories, Canada

Public forecast

Using degrees Celsius for public forecast. Weather courtesy of forecast.io.

Closest aviation weather report (METAR) to Mount Flett Airport

Closest report is Fort Liard Airport, 26.2 nm (48.4 km) S. Retrieved 2019/10/22 19:00 UTC (57 minutes ago):

CYJF 221900Z 21007KT 10SM BCFG SCT014 BKN026 BKN068 OVC220 00/M01 A2992 RMK ST4SC2AS1CS1 SLP144

Closest aviation forecast (TAF) to Mount Flett Airport

Closest forecast is Fort Simpson Airport, 94.7 nm (175.5 km) NE. Retrieved 2019/10/22 18:42 UTC (1 hour ago):

TAF CYFS 221738Z 2218/2306 VRB03KT P6SM SCT006 BKN025 TEMPO 2218/2306 1SM -SN BR BKN006 OVC012 RMK NXT FCST BY 230000Z